Terminal Aerodrome Forecast
Issued by NWS Sterling, VA

Home | Current Version | Previous Version | Text Only | Print | Product List | Glossary On
Versions: 1 2 3 4 5 6 7 8 9 10 11 12 13 14 15 16 17
000
FTUS41 KLWX 271729
TAFMRB
TAF
KMRB 271729Z 2718/2818 17012G19KT P6SM SCT250
     FM272100 18013KT P6SM VCTS SCT060CB
     FM280000 18011G18KT P6SM BKN050
     FM280300 20006KT P6SM OVC130
     FM280500 23004KT P6SM BKN250
     FM280900 VRB03KT 3SM BR SCT250
     FM281200 31005KT P6SM SCT200=

USA.gov is the U.S. government's official web portal to all federal, state and local government web resources and services.